Terminal Aerodrome Forecast
Issued by NWS Buffalo, NY

Home | Current Version | Previous Version | Text Only | Print | Product List | Glossary On
Versions: 1 2 3 4 5 6 7 8 9 10 11 12 13 14 15 16 17 18 19 20 21 22 23 24 25 26 27 28
000
FTUS41 KBUF 262300
TAFART
TAF
KART 262320Z 2700/2724 23005KT 1 1/2SM -SN BR OVC002
     FM270100 24005KT 2SM -SNRA OVC007
     FM270400 23006KT 5SM BR OVC007
     FM271000 33005KT 4SM -SN BR OVC012
     FM271600 01010KT 5SM -SN BR OVC020=

USA.gov is the U.S. government's official web portal to all federal, state and local government web resources and services.